createdAt,value
2016-10-27T00:01:05.131Z,0
2016-10-27T00:02:17.252Z,0
2016-10-27T00:03:29.931Z,0
2016-10-27T00:04:42.983Z,0
2016-10-27T00:05:56.545Z,0
2016-10-27T00:07:09.525Z,0
2016-10-27T00:08:23.112Z,0
2016-10-27T00:09:36.678Z,0
2016-10-27T00:10:49.178Z,0
2016-10-27T00:12:01.683Z,0
2016-10-27T00:13:14.747Z,0
2016-10-27T00:14:27.749Z,0
2016-10-27T00:15:41.259Z,0
2016-10-27T00:16:53.301Z,0
2016-10-27T00:18:05.819Z,0
2016-10-27T00:19:18.813Z,0
2016-10-27T00:20:32.321Z,0
2016-10-27T00:21:45.830Z,0
2016-10-27T00:22:57.723Z,0
2016-10-27T00:24:09.642Z,0
2016-10-27T00:25:23.139Z,0
2016-10-27T00:26:35.595Z,0
2016-10-27T00:27:48.106Z,0
2016-10-27T00:29:01.740Z,0
2016-10-27T00:30:14.754Z,0
2016-10-27T00:31:27.827Z,0
2016-10-27T00:32:40.901Z,0
2016-10-27T00:33:53.445Z,0
2016-10-27T00:35:05.991Z,0
2016-10-27T00:36:19.020Z,0
2016-10-27T00:37:32.067Z,0
2016-10-27T00:38:45.232Z,0
2016-10-27T00:39:58.278Z,0
2016-10-27T00:41:11.357Z,0
2016-10-27T00:42:24.422Z,0
2016-10-27T00:43:37.996Z,0
2016-10-27T00:44:49.983Z,0
2016-10-27T00:46:03.062Z,0
2016-10-27T00:47:16.111Z,0
2016-10-27T00:48:29.133Z,0
2016-10-27T00:49:41.116Z,0
2016-10-27T00:50:53.593Z,0
2016-10-27T00:52:06.096Z,0
2016-10-27T00:53:19.285Z,0
2016-10-27T00:54:31.233Z,0
2016-10-27T00:55:44.240Z,0
2016-10-27T00:56:57.214Z,0
2016-10-27T00:58:09.160Z,0
2016-10-27T00:59:21.195Z,0
2016-10-27T01:00:34.213Z,0
2016-10-27T01:01:47.224Z,0
2016-10-27T01:03:00.192Z,0
2016-10-27T01:04:12.173Z,0
2016-10-27T01:05:24.089Z,0
2016-10-27T01:06:37.122Z,0
2016-10-27T01:07:49.078Z,0
2016-10-27T01:09:01.505Z,0
2016-10-27T01:10:14.494Z,0
2016-10-27T01:11:27.516Z,0
2016-10-27T01:12:38.960Z,0
2016-10-27T01:13:52.512Z,0
2016-10-27T01:15:04.974Z,0
2016-10-27T01:16:18.036Z,0
2016-10-27T01:17:31.090Z,0
2016-10-27T01:18:44.084Z,0
2016-10-27T01:19:57.136Z,0
2016-10-27T01:21:10.125Z,0
2016-10-27T01:22:22.661Z,0
2016-10-27T01:23:35.159Z,0
2016-10-27T01:24:48.758Z,0
2016-10-27T01:26:01.390Z,0
2016-10-27T01:27:14.481Z,0
2016-10-27T01:28:27.542Z,0
2016-10-27T01:29:40.628Z,0
2016-10-27T01:30:54.265Z,0
2016-10-27T01:32:07.309Z,0
2016-10-27T01:33:20.362Z,0
2016-10-27T01:34:33.479Z,0
2016-10-27T01:35:47.119Z,0
2016-10-27T01:37:00.170Z,0
2016-10-27T01:38:13.748Z,0
2016-10-27T01:39:25.798Z,0
2016-10-27T01:40:38.396Z,0
2016-10-27T01:41:52.012Z,0
2016-10-27T01:43:05.635Z,0
2016-10-27T01:44:18.703Z,0
2016-10-27T01:45:32.356Z,0
2016-10-27T01:46:44.880Z,0
2016-10-27T01:47:58.502Z,0
2016-10-27T01:49:12.098Z,0
2016-10-27T01:50:24.634Z,0
2016-10-27T01:51:37.188Z,0
2016-10-27T01:52:49.790Z,0
2016-10-27T01:54:02.296Z,0
2016-10-27T01:55:15.834Z,0
2016-10-27T01:56:29.401Z,0
2016-10-27T01:57:43.001Z,0
2016-10-27T01:58:55.518Z,0
2016-10-27T02:00:08.514Z,0
2016-10-27T02:01:20.488Z,0
2016-10-27T02:02:34.047Z,0
2016-10-27T02:03:47.089Z,0
2016-10-27T02:05:00.229Z,0
2016-10-27T02:06:13.787Z,0
2016-10-27T02:07:27.389Z,0
2016-10-27T02:08:40.447Z,0
2016-10-27T02:09:53.497Z,0
2016-10-27T02:11:06.506Z,0
2016-10-27T02:12:20.101Z,0
2016-10-27T02:13:33.208Z,0
2016-10-27T02:14:46.289Z,0
2016-10-27T02:15:59.347Z,0
2016-10-27T02:17:12.906Z,0
2016-10-27T02:18:26.411Z,0
2016-10-27T02:19:39.374Z,0
2016-10-27T02:20:52.959Z,0
2016-10-27T02:22:05.977Z,0
2016-10-27T02:23:19.078Z,0
2016-10-27T02:24:32.145Z,0
2016-10-27T02:25:45.700Z,0
2016-10-27T02:26:59.269Z,0
2016-10-27T02:28:11.215Z,0
2016-10-27T02:29:24.802Z,0
2016-10-27T02:30:38.419Z,0
2016-10-27T02:31:51.539Z,0
2016-10-27T02:33:05.094Z,0
2016-10-27T02:34:18.694Z,0
2016-10-27T02:35:31.800Z,0
2016-10-27T02:36:44.764Z,0
2016-10-27T02:37:58.320Z,0
2016-10-27T02:39:11.907Z,0
2016-10-27T02:40:25.435Z,0
2016-10-27T02:41:38.474Z,0
2016-10-27T02:42:51.502Z,0
2016-10-27T02:44:04.590Z,0
2016-10-27T02:45:18.163Z,0
2016-10-27T02:46:31.256Z,0
2016-10-27T02:47:44.229Z,0
2016-10-27T02:48:57.267Z,0
2016-10-27T02:50:10.398Z,0
2016-10-27T02:51:24.019Z,0
2016-10-27T02:52:37.026Z,0
2016-10-27T02:53:50.031Z,0
2016-10-27T02:55:03.661Z,0
2016-10-27T02:56:17.251Z,0
2016-10-27T02:57:30.870Z,0
2016-10-27T02:58:43.890Z,0
2016-10-27T02:59:57.432Z,0
2016-10-27T03:01:11.035Z,0
2016-10-27T03:02:24.019Z,0
2016-10-27T03:03:37.105Z,0
2016-10-27T03:04:50.650Z,0
2016-10-27T03:06:03.630Z,0
2016-10-27T03:07:16.710Z,0
2016-10-27T03:08:30.273Z,0
2016-10-27T03:09:43.908Z,0
2016-10-27T03:10:57.538Z,0
2016-10-27T03:12:09.495Z,0
2016-10-27T03:13:22.523Z,0
2016-10-27T03:14:50.580Z,0
2016-10-27T03:16:19.126Z,0
2016-10-27T03:18:00.572Z,0
2016-10-27T03:19:14.239Z,0
2016-10-27T03:20:42.354Z,0
2016-10-27T03:21:55.430Z,0
2016-10-27T03:23:08.974Z,0
2016-10-27T03:24:22.597Z,0
2016-10-27T03:25:35.588Z,0
2016-10-27T03:26:48.136Z,0
2016-10-27T03:28:01.281Z,0
2016-10-27T03:29:14.862Z,0
2016-10-27T03:30:27.960Z,0
2016-10-27T03:31:41.083Z,0
2016-10-27T03:32:54.606Z,0
2016-10-27T03:34:07.627Z,0
2016-10-27T03:35:20.703Z,0
2016-10-27T03:36:33.756Z,0
2016-10-27T03:37:47.299Z,0
2016-10-27T03:39:00.394Z,0
2016-10-27T03:40:13.989Z,0
2016-10-27T03:41:27.067Z,0
2016-10-27T03:42:39.608Z,0
2016-10-27T03:43:53.246Z,0
2016-10-27T03:45:05.735Z,0
2016-10-27T03:46:18.849Z,0
2016-10-27T03:47:31.897Z,0
2016-10-27T03:48:45.410Z,0
2016-10-27T03:49:57.924Z,0
2016-10-27T03:51:11.527Z,0
2016-10-27T03:52:24.606Z,0
2016-10-27T03:53:37.701Z,0
2016-10-27T03:54:50.703Z,0
2016-10-27T03:56:04.266Z,0
2016-10-27T03:57:17.278Z,0
2016-10-27T03:58:30.877Z,0
2016-10-27T03:59:44.481Z,0
2016-10-27T04:00:57.519Z,0
2016-10-27T04:02:11.077Z,0
2016-10-27T04:03:24.141Z,0
2016-10-27T04:04:37.203Z,0
2016-10-27T04:05:50.216Z,0
2016-10-27T04:07:02.794Z,0
2016-10-27T04:08:15.836Z,0
2016-10-27T04:09:28.919Z,0
2016-10-27T04:10:42.530Z,0
2016-10-27T04:11:56.084Z,0
2016-10-27T04:13:09.668Z,0
2016-10-27T04:14:22.685Z,0
2016-10-27T04:15:35.647Z,0
2016-10-27T04:16:49.302Z,0
2016-10-27T04:18:02.887Z,0
2016-10-27T04:19:15.977Z,0
2016-10-27T04:20:29.000Z,0
2016-10-27T04:21:41.008Z,0
2016-10-27T04:22:54.590Z,0
2016-10-27T04:24:07.582Z,0
2016-10-27T04:25:21.126Z,0
2016-10-27T04:26:33.616Z,0
2016-10-27T04:27:47.196Z,0
2016-10-27T04:29:00.265Z,0
2016-10-27T04:30:12.868Z,0
2016-10-27T04:31:25.932Z,0
2016-10-27T04:32:38.491Z,0
2016-10-27T04:33:51.552Z,0
2016-10-27T04:35:05.103Z,0
2016-10-27T04:36:18.658Z,0
2016-10-27T04:37:32.262Z,0
2016-10-27T04:38:45.301Z,0
2016-10-27T04:39:58.919Z,0
2016-10-27T04:41:12.412Z,0
2016-10-27T04:42:26.063Z,0
2016-10-27T04:43:39.113Z,0
2016-10-27T04:44:50.577Z,0
2016-10-27T04:46:03.683Z,0
2016-10-27T04:47:16.730Z,0
2016-10-27T04:48:29.249Z,0
2016-10-27T04:49:42.800Z,0
2016-10-27T04:50:55.836Z,0
2016-10-27T04:52:09.431Z,0
2016-10-27T04:53:22.487Z,0
2016-10-27T04:54:34.988Z,0
2016-10-27T04:55:48.029Z,0
2016-10-27T04:57:01.064Z,0
2016-10-27T04:58:13.572Z,0
2016-10-27T04:59:26.643Z,0
2016-10-27T05:00:39.093Z,0
2016-10-27T05:01:51.617Z,0
2016-10-27T05:03:04.657Z,0
2016-10-27T05:04:18.234Z,0
2016-10-27T05:05:31.830Z,0
2016-10-27T05:06:43.791Z,0
2016-10-27T05:07:56.828Z,0
2016-10-27T05:09:10.412Z,0
2016-10-27T05:10:23.520Z,0
2016-10-27T05:11:36.057Z,0
2016-10-27T05:12:49.106Z,0
2016-10-27T05:14:02.111Z,0
2016-10-27T05:15:15.383Z,0
2016-10-27T05:16:27.405Z,0
2016-10-27T05:17:39.374Z,0
2016-10-27T05:18:51.906Z,0
2016-10-27T05:20:04.391Z,0
2016-10-27T05:21:18.063Z,0
2016-10-27T05:22:30.579Z,0
2016-10-27T05:23:43.604Z,0
2016-10-27T05:24:56.166Z,0
2016-10-27T05:26:09.193Z,0
2016-10-27T05:27:21.148Z,0
2016-10-27T05:28:34.262Z,0
2016-10-27T05:29:47.876Z,0
2016-10-27T05:31:01.013Z,0
2016-10-27T05:32:13.519Z,0
2016-10-27T05:33:26.041Z,0
2016-10-27T05:34:39.620Z,0
2016-10-27T05:35:52.727Z,0
2016-10-27T05:37:05.829Z,0
2016-10-27T05:38:19.314Z,0
2016-10-27T05:39:32.369Z,0
2016-10-27T05:40:45.357Z,0
2016-10-27T05:41:58.420Z,0
2016-10-27T05:43:10.952Z,0
2016-10-27T05:44:23.999Z,0
2016-10-27T05:45:37.533Z,0
2016-10-27T05:46:51.100Z,0
2016-10-27T05:48:04.139Z,0
2016-10-27T05:49:17.244Z,0
2016-10-27T05:50:30.852Z,0
2016-10-27T05:51:43.918Z,0
2016-10-27T05:52:57.570Z,0
2016-10-27T05:54:10.077Z,0
2016-10-27T05:55:23.147Z,0
2016-10-27T05:56:36.247Z,0
2016-10-27T05:57:49.202Z,0
2016-10-27T05:59:01.706Z,0
2016-10-27T06:00:15.240Z,0
2016-10-27T06:01:28.277Z,0
2016-10-27T06:02:41.839Z,0
2016-10-27T06:03:55.386Z,0
2016-10-27T06:05:08.637Z,0
2016-10-27T06:06:21.713Z,0
2016-10-27T06:07:34.240Z,0
2016-10-27T06:08:46.837Z,0
2016-10-27T06:09:59.895Z,0
2016-10-27T06:11:12.462Z,0
2016-10-27T06:12:25.491Z,0
2016-10-27T06:13:38.498Z,0
2016-10-27T06:14:51.559Z,0
2016-10-27T06:16:04.598Z,0
2016-10-27T06:17:17.609Z,0
2016-10-27T06:18:30.691Z,0
2016-10-27T06:19:42.697Z,0
2016-10-27T06:20:55.753Z,0
2016-10-27T06:22:08.753Z,0
2016-10-27T06:23:20.691Z,0
2016-10-27T06:24:33.247Z,0
2016-10-27T06:25:46.335Z,0
2016-10-27T06:26:59.917Z,0
2016-10-27T06:28:13.481Z,0
2016-10-27T06:29:26.020Z,0
2016-10-27T06:30:39.591Z,0
2016-10-27T06:31:52.080Z,0
2016-10-27T06:33:04.648Z,0
2016-10-27T06:34:17.673Z,0
2016-10-27T06:35:30.719Z,0
2016-10-27T06:36:44.282Z,0
2016-10-27T06:37:57.873Z,0
2016-10-27T06:39:11.420Z,0
2016-10-27T06:40:23.940Z,0
2016-10-27T06:41:36.958Z,0
2016-10-27T06:42:49.991Z,0
2016-10-27T06:44:02.530Z,0
2016-10-27T06:45:15.618Z,0
2016-10-27T06:46:29.153Z,0
2016-10-27T06:47:42.733Z,0
2016-10-27T06:48:56.324Z,0
2016-10-27T06:50:09.990Z,0
2016-10-27T06:51:23.026Z,0
2016-10-27T06:52:36.144Z,0
2016-10-27T06:53:49.746Z,0
2016-10-27T06:55:02.843Z,0
2016-10-27T06:56:15.906Z,0
2016-10-27T06:57:28.970Z,0
2016-10-27T06:58:42.044Z,0
2016-10-27T06:59:55.115Z,0
2016-10-27T07:01:08.089Z,0
2016-10-27T07:02:21.161Z,0
2016-10-27T07:03:34.268Z,0
2016-10-27T07:04:46.785Z,0
2016-10-27T07:06:00.278Z,0
2016-10-27T07:07:13.356Z,0
2016-10-27T07:08:25.901Z,0
2016-10-27T07:09:38.516Z,0
2016-10-27T07:10:51.587Z,0
2016-10-27T07:12:04.621Z,0
2016-10-27T07:13:18.190Z,0
2016-10-27T07:14:31.189Z,0
2016-10-27T07:15:44.228Z,0
2016-10-27T07:16:57.778Z,0
2016-10-27T07:18:10.859Z,0
2016-10-27T07:19:23.921Z,0
2016-10-27T07:20:36.968Z,0
2016-10-27T07:21:50.039Z,0
2016-10-27T07:23:03.639Z,0
2016-10-27T07:24:16.199Z,0
2016-10-27T07:25:29.767Z,0
2016-10-27T07:26:42.816Z,0
2016-10-27T07:27:56.332Z,0
2016-10-27T07:29:09.452Z,0
2016-10-27T07:30:22.026Z,0
2016-10-27T07:31:34.036Z,0
2016-10-27T07:32:47.078Z,0
2016-10-27T07:33:59.638Z,0
2016-10-27T07:35:13.305Z,0
2016-10-27T07:36:26.863Z,0
2016-10-27T07:37:39.880Z,0
2016-10-27T07:38:53.441Z,0
2016-10-27T07:40:06.498Z,0
2016-10-27T07:41:19.020Z,0
2016-10-27T07:42:31.464Z,0
2016-10-27T07:43:44.498Z,0
2016-10-27T07:44:57.505Z,0
2016-10-27T07:46:09.474Z,0
2016-10-27T07:47:22.059Z,0
2016-10-27T07:48:35.586Z,0
2016-10-27T07:49:47.532Z,0
2016-10-27T07:51:01.040Z,0
2016-10-27T07:52:14.103Z,0
2016-10-27T07:53:26.626Z,0
2016-10-27T07:54:39.609Z,0
2016-10-27T07:55:52.657Z,0
2016-10-27T07:57:05.149Z,0
2016-10-27T07:58:17.705Z,0
2016-10-27T07:59:30.775Z,0
2016-10-27T08:00:43.301Z,0
2016-10-27T08:01:56.303Z,4
2016-10-27T08:03:09.287Z,0
2016-10-27T08:04:22.865Z,4
2016-10-27T08:05:35.339Z,4
2016-10-27T08:06:47.283Z,4
2016-10-27T08:08:00.844Z,8
2016-10-27T08:09:12.801Z,12
2016-10-27T08:10:25.950Z,12
2016-10-27T08:11:38.929Z,16
2016-10-27T08:12:51.966Z,24
2016-10-27T08:14:05.584Z,32
2016-10-27T08:15:19.155Z,40
2016-10-27T08:16:32.865Z,56
2016-10-27T08:17:46.435Z,80
2016-10-27T08:18:58.985Z,104
2016-10-27T08:20:12.016Z,124
2016-10-27T08:21:24.587Z,148
2016-10-27T08:22:37.668Z,168
2016-10-27T08:23:50.145Z,188
2016-10-27T08:25:02.741Z,216
2016-10-27T08:26:16.366Z,244
2016-10-27T08:27:28.871Z,272
2016-10-27T08:28:42.494Z,300
2016-10-27T08:29:54.990Z,328
2016-10-27T08:31:08.525Z,344
2016-10-27T08:32:21.574Z,372
2016-10-27T08:33:33.582Z,384
2016-10-27T08:34:46.639Z,436
2016-10-27T08:35:59.693Z,520
2016-10-27T08:37:12.287Z,624
2016-10-27T08:38:25.414Z,684
2016-10-27T08:39:37.934Z,852
2016-10-27T08:40:49.971Z,1516
2016-10-27T08:42:01.983Z,1296
2016-10-27T08:43:15.088Z,868
2016-10-27T08:44:27.569Z,932
2016-10-27T08:45:41.167Z,952
2016-10-27T08:46:54.796Z,900
2016-10-27T08:48:07.313Z,888
2016-10-27T08:49:20.374Z,1032
2016-10-27T08:50:32.900Z,1080
2016-10-27T08:51:45.433Z,1144
2016-10-27T08:52:58.520Z,1276
2016-10-27T08:54:11.597Z,1488
2016-10-27T08:55:24.118Z,1508
2016-10-27T08:56:37.132Z,1536
2016-10-27T08:57:50.151Z,4232
2016-10-27T08:59:03.248Z,3020
2016-10-27T09:00:16.334Z,1624
2016-10-27T09:01:29.405Z,1552
2016-10-27T09:02:42.918Z,1584
2016-10-27T09:03:55.989Z,1660
2016-10-27T09:05:08.484Z,1660
2016-10-27T09:06:22.092Z,1764
2016-10-27T09:07:34.629Z,1864
2016-10-27T09:08:46.588Z,2064
2016-10-27T09:09:59.086Z,2016
2016-10-27T09:11:12.684Z,2200
2016-10-27T09:12:26.226Z,2300
2016-10-27T09:13:39.860Z,2356
2016-10-27T09:14:52.945Z,2524
2016-10-27T09:16:05.479Z,2524
2016-10-27T09:17:19.099Z,2388
2016-10-27T09:18:32.154Z,2548
2016-10-27T09:19:45.707Z,2632
2016-10-27T09:20:58.767Z,2680
2016-10-27T09:22:11.321Z,2656
2016-10-27T09:23:24.342Z,3096
2016-10-27T09:24:37.940Z,3308
2016-10-27T09:25:49.929Z,3336
2016-10-27T09:27:02.416Z,3332
2016-10-27T09:28:15.541Z,3420
2016-10-27T09:29:28.666Z,3652
2016-10-27T09:30:41.781Z,3784
2016-10-27T09:31:55.315Z,3328
2016-10-27T09:33:08.368Z,2876
2016-10-27T09:34:21.953Z,2372
2016-10-27T09:35:34.959Z,2252
2016-10-27T09:36:46.391Z,2140
2016-10-27T09:37:59.465Z,2024
2016-10-27T09:39:11.969Z,1916
2016-10-27T09:40:25.051Z,2016
2016-10-27T09:41:38.070Z,2372
2016-10-27T09:42:50.622Z,2952
2016-10-27T09:44:03.788Z,3400
2016-10-27T09:45:17.368Z,3760
2016-10-27T09:46:30.426Z,4080
2016-10-27T09:47:43.409Z,4796
2016-10-27T09:48:56.557Z,5084
2016-10-27T09:50:10.116Z,5032
2016-10-27T09:51:23.110Z,4876
2016-10-27T09:52:35.676Z,4960
2016-10-27T09:53:48.742Z,4980
2016-10-27T09:55:01.691Z,4824
2016-10-27T09:56:14.217Z,5108
2016-10-27T09:57:27.230Z,5560
2016-10-27T09:58:40.320Z,5572
2016-10-27T09:59:53.344Z,5752
2016-10-27T10:01:06.368Z,6444
2016-10-27T10:02:18.368Z,7176
2016-10-27T10:03:32.030Z,7444
2016-10-27T10:04:45.574Z,6948
2016-10-27T10:05:58.124Z,7084
2016-10-27T10:07:11.727Z,7372
2016-10-27T10:08:25.280Z,7356
2016-10-27T10:09:38.358Z,7228
2016-10-27T10:10:50.919Z,7400
2016-10-27T10:12:03.508Z,7800
2016-10-27T10:13:15.524Z,8476
2016-10-27T10:14:27.541Z,9264
2016-10-27T10:15:40.563Z,9832
2016-10-27T10:16:54.121Z,10428
2016-10-27T10:18:07.182Z,11052
2016-10-27T10:19:20.253Z,11468
2016-10-27T10:20:33.788Z,12788
2016-10-27T10:21:46.355Z,13428
2016-10-27T10:22:58.903Z,12876
2016-10-27T10:24:12.565Z,15008
2016-10-27T10:25:25.547Z,27776
2016-10-27T10:26:39.104Z,55936
2016-10-27T10:27:51.094Z,28032
2016-10-27T10:29:03.113Z,75488
2016-10-27T10:30:15.682Z,53376
2016-10-27T10:31:28.160Z,73248
2016-10-27T10:32:40.632Z,69952
2016-10-27T10:33:54.147Z,77568
2016-10-27T10:35:06.744Z,76416
2016-10-27T10:36:19.848Z,78880
2016-10-27T10:37:33.467Z,44928
2016-10-27T10:38:45.493Z,24192
2016-10-27T10:39:59.052Z,20608
2016-10-27T10:41:11.610Z,23648
2016-10-27T10:42:24.662Z,17888
2016-10-27T10:43:37.728Z,24960
2016-10-27T10:44:51.273Z,69504
2016-10-27T10:46:04.885Z,20128
2016-10-27T10:47:17.384Z,14436
2016-10-27T10:48:29.401Z,17216
2016-10-27T10:49:41.979Z,13772
2016-10-27T10:50:54.967Z,12140
2016-10-27T10:52:08.009Z,11580
2016-10-27T10:53:21.634Z,11460
2016-10-27T10:54:34.664Z,11300
2016-10-27T10:55:47.205Z,11244
2016-10-27T10:57:00.233Z,11032
2016-10-27T10:58:13.285Z,10036
2016-10-27T10:59:26.326Z,9824
2016-10-27T11:00:39.886Z,10932
2016-10-27T11:01:53.413Z,20608
2016-10-27T11:03:05.963Z,27360
2016-10-27T11:04:17.990Z,25824
2016-10-27T11:05:31.060Z,14604
2016-10-27T11:06:44.667Z,12464
2016-10-27T11:07:57.720Z,11664
2016-10-27T11:09:10.798Z,10536
2016-10-27T11:10:23.854Z,10364
2016-10-27T11:11:36.898Z,10144
2016-10-27T11:12:49.918Z,9812
2016-10-27T11:14:02.946Z,10108
2016-10-27T11:15:16.031Z,10368
2016-10-27T11:16:29.104Z,10680
2016-10-27T11:17:42.701Z,11524
2016-10-27T11:18:56.292Z,11928
2016-10-27T11:20:09.315Z,13224
2016-10-27T11:21:22.936Z,13512
2016-10-27T11:22:35.939Z,12728
2016-10-27T11:23:48.963Z,14468
2016-10-27T11:25:01.497Z,16800
2016-10-27T11:26:14.574Z,22400
2016-10-27T11:27:27.642Z,25024
2016-10-27T11:28:40.758Z,25056
2016-10-27T11:29:53.255Z,21504
2016-10-27T11:31:06.300Z,20064
2016-10-27T11:32:19.361Z,12572
2016-10-27T11:33:32.940Z,9700
2016-10-27T11:34:46.461Z,8636
2016-10-27T11:35:59.500Z,9128
2016-10-27T11:37:11.476Z,10568
2016-10-27T11:38:24.021Z,11532
2016-10-27T11:39:37.563Z,10560
2016-10-27T11:40:51.153Z,7912
2016-10-27T11:42:04.696Z,7112
2016-10-27T11:43:17.281Z,10792
2016-10-27T11:44:30.310Z,8544
2016-10-27T11:45:43.357Z,8440
2016-10-27T11:46:55.870Z,9608
2016-10-27T11:48:08.437Z,11436
2016-10-27T11:49:21.517Z,7940
2016-10-27T11:50:35.009Z,7128
2016-10-27T11:51:48.091Z,5800
2016-10-27T11:53:00.650Z,5712
2016-10-27T11:54:14.232Z,5860
2016-10-27T11:55:27.253Z,5412
2016-10-27T11:56:39.231Z,5284
2016-10-27T11:57:51.812Z,5616
2016-10-27T11:59:05.501Z,7360
2016-10-27T12:00:17.472Z,39712
2016-10-27T12:01:29.980Z,20992
2016-10-27T12:02:43.058Z,40864
2016-10-27T12:03:56.079Z,48000
2016-10-27T12:05:09.660Z,33952
2016-10-27T12:06:22.721Z,23936
2016-10-27T12:07:35.233Z,24160
2016-10-27T12:08:48.290Z,18400
2016-10-27T12:10:01.351Z,24032
2016-10-27T12:11:13.864Z,38912
2016-10-27T12:12:27.391Z,26976
2016-10-27T12:13:39.429Z,30848
2016-10-27T12:14:52.520Z,42240
2016-10-27T12:16:06.094Z,24544
2016-10-27T12:17:19.670Z,37408
2016-10-27T12:18:33.291Z,40640
2016-10-27T12:19:46.374Z,23008
2016-10-27T12:20:59.456Z,18304
2016-10-27T12:22:12.009Z,19264
2016-10-27T12:23:25.530Z,18624
2016-10-27T12:24:39.072Z,16288
2016-10-27T12:25:52.159Z,17568
2016-10-27T12:27:05.725Z,12292
2016-10-27T12:28:18.822Z,9284
2016-10-27T12:29:31.855Z,7276
2016-10-27T12:30:45.497Z,11936
2016-10-27T12:31:58.545Z,29952
2016-10-27T12:33:11.107Z,28000
2016-10-27T12:34:24.778Z,15672
2016-10-27T12:35:37.368Z,15968
2016-10-27T12:36:48.832Z,11212
2016-10-27T12:38:01.362Z,11232
2016-10-27T12:39:14.885Z,38400
2016-10-27T12:40:27.965Z,39296
2016-10-27T12:41:40.978Z,25248
2016-10-27T12:42:54.067Z,21600
2016-10-27T12:44:07.081Z,24704
2016-10-27T12:45:20.200Z,20256
2016-10-27T12:46:33.227Z,16768
2016-10-27T12:47:46.313Z,14292
2016-10-27T12:48:58.845Z,12928
2016-10-27T12:50:11.880Z,32096
2016-10-27T12:51:24.464Z,28096
2016-10-27T12:52:36.967Z,33024
2016-10-27T12:53:50.048Z,23360
2016-10-27T12:55:03.128Z,24640
2016-10-27T12:56:16.238Z,33248
2016-10-27T12:57:29.798Z,32352
2016-10-27T12:58:42.938Z,31296
2016-10-27T12:59:56.036Z,30080
2016-10-27T13:01:09.603Z,30400
2016-10-27T13:02:22.635Z,31104
2016-10-27T13:03:35.702Z,13764
2016-10-27T13:04:49.291Z,11240
2016-10-27T13:06:01.802Z,10860
2016-10-27T13:07:15.460Z,12368
2016-10-27T13:08:28.501Z,14888
2016-10-27T13:09:40.982Z,27904
2016-10-27T13:10:54.038Z,21856
2016-10-27T13:12:07.034Z,26912
2016-10-27T13:13:20.091Z,17408
2016-10-27T13:14:32.649Z,16352
2016-10-27T13:15:46.267Z,12688
2016-10-27T13:16:59.867Z,20800
2016-10-27T13:18:12.389Z,13580
2016-10-27T13:19:25.998Z,9532
2016-10-27T13:20:39.620Z,8180
2016-10-27T13:21:53.168Z,7456
2016-10-27T13:23:06.234Z,7956
2016-10-27T13:24:19.305Z,8368
2016-10-27T13:25:32.927Z,7084
2016-10-27T13:26:45.495Z,7744
2016-10-27T13:27:59.078Z,7300
2016-10-27T13:29:12.121Z,6352
2016-10-27T13:30:25.214Z,6516
2016-10-27T13:31:38.348Z,4064
2016-10-27T13:32:51.465Z,3172
2016-10-27T13:34:04.494Z,2836
2016-10-27T13:35:17.604Z,2544
2016-10-27T13:36:31.166Z,2624
2016-10-27T13:37:44.725Z,3392
2016-10-27T13:38:57.309Z,4920
2016-10-27T13:40:09.887Z,3780
2016-10-27T13:41:22.407Z,3692
2016-10-27T13:42:34.420Z,6436
2016-10-27T13:43:47.521Z,7884
2016-10-27T13:45:00.565Z,7560
2016-10-27T13:46:13.630Z,5952
2016-10-27T13:47:27.201Z,4960
2016-10-27T13:48:39.705Z,4212
2016-10-27T13:49:52.306Z,3848
2016-10-27T13:51:05.330Z,5420
2016-10-27T13:52:18.348Z,7600
2016-10-27T13:53:31.341Z,9360
2016-10-27T13:54:44.970Z,8764
2016-10-27T13:55:58.069Z,7108
2016-10-27T13:57:11.110Z,6116
2016-10-27T13:58:22.627Z,5448
2016-10-27T13:59:35.685Z,4028
2016-10-27T14:00:48.792Z,3448
2016-10-27T14:02:02.440Z,4308
2016-10-27T14:03:15.528Z,5844
2016-10-27T14:04:28.526Z,6924
2016-10-27T14:05:41.039Z,9300
2016-10-27T14:06:54.696Z,11680
2016-10-27T14:08:07.252Z,10816
2016-10-27T14:09:20.312Z,9088
2016-10-27T14:10:33.316Z,8296
2016-10-27T14:11:46.898Z,6628
2016-10-27T14:12:58.914Z,6560
2016-10-27T14:14:11.456Z,5780
2016-10-27T14:15:23.430Z,4800
2016-10-27T14:16:36.542Z,4528
2016-10-27T14:17:50.167Z,4728
2016-10-27T14:19:02.766Z,6144
2016-10-27T14:20:15.853Z,7708
2016-10-27T14:21:28.898Z,10508
2016-10-27T14:22:41.990Z,9204
2016-10-27T14:23:54.488Z,6904
2016-10-27T14:25:07.515Z,7796
2016-10-27T14:26:21.149Z,7792
2016-10-27T14:27:33.143Z,9308
2016-10-27T14:28:46.793Z,9620
2016-10-27T14:29:59.899Z,8580
2016-10-27T14:31:13.409Z,6876
2016-10-27T14:32:26.473Z,4616
2016-10-27T14:33:39.989Z,4272
2016-10-27T14:34:53.056Z,4816
2016-10-27T14:36:06.678Z,4004
2016-10-27T14:37:20.245Z,3712
2016-10-27T14:38:33.360Z,2376
2016-10-27T14:39:46.937Z,1904
2016-10-27T14:40:59.469Z,1776
2016-10-27T14:42:12.477Z,1944
2016-10-27T14:43:26.016Z,2608
2016-10-27T14:44:39.597Z,3264
2016-10-27T14:45:52.715Z,4896
2016-10-27T14:47:06.272Z,6656
2016-10-27T14:48:19.880Z,6156
2016-10-27T14:49:33.457Z,4928
2016-10-27T14:50:47.050Z,4568
2016-10-27T14:52:00.183Z,4596
2016-10-27T14:53:13.763Z,4496
2016-10-27T14:54:26.383Z,6036
2016-10-27T14:55:39.452Z,9444
2016-10-27T14:56:52.466Z,10260
2016-10-27T14:58:06.026Z,10256
2016-10-27T14:59:18.502Z,12024
2016-10-27T15:00:31.573Z,11692
2016-10-27T15:01:44.157Z,11616
2016-10-27T15:02:57.747Z,10616
2016-10-27T15:04:10.798Z,11756
2016-10-27T15:05:24.434Z,12108
2016-10-27T15:06:38.042Z,10904
2016-10-27T15:07:50.586Z,11568
2016-10-27T15:09:03.642Z,14308
2016-10-27T15:10:16.721Z,10708
2016-10-27T15:11:28.671Z,10128
2016-10-27T15:12:42.250Z,9576
2016-10-27T15:13:55.259Z,12888
2016-10-27T15:15:08.743Z,12324
2016-10-27T15:16:21.729Z,10636
2016-10-27T15:17:35.391Z,8900
2016-10-27T15:18:48.425Z,10852
2016-10-27T15:20:02.011Z,11236
2016-10-27T15:21:15.612Z,10592
2016-10-27T15:22:29.175Z,9836
2016-10-27T15:23:42.269Z,9876
2016-10-27T15:24:55.943Z,9860
2016-10-27T15:26:08.995Z,7904
2016-10-27T15:27:22.069Z,9172
2016-10-27T15:28:35.154Z,8632
2016-10-27T15:29:48.185Z,8764
2016-10-27T15:31:00.182Z,9312
2016-10-27T15:32:12.731Z,9760
2016-10-27T15:33:25.237Z,10180
2016-10-27T15:34:37.781Z,11132
2016-10-27T15:35:50.833Z,11644
2016-10-27T15:37:02.838Z,11548
2016-10-27T15:38:15.954Z,12456
2016-10-27T15:39:28.032Z,14100
2016-10-27T15:40:41.051Z,10372
2016-10-27T15:41:53.579Z,9608
2016-10-27T15:43:07.244Z,9368
2016-10-27T15:44:20.892Z,9020
2016-10-27T15:45:33.965Z,8860
2016-10-27T15:46:45.917Z,7672
2016-10-27T15:47:59.459Z,5748
2016-10-27T15:49:12.679Z,5008
2016-10-27T15:50:25.820Z,4856
2016-10-27T15:51:38.981Z,8496
2016-10-27T15:52:52.591Z,10800
2016-10-27T15:54:06.196Z,10364
2016-10-27T15:55:19.248Z,11236
2016-10-27T15:56:31.757Z,11112
2016-10-27T15:57:44.803Z,9060
2016-10-27T15:58:57.827Z,9568
2016-10-27T16:00:10.900Z,11580
2016-10-27T16:01:24.542Z,11880
2016-10-27T16:02:38.126Z,10740
2016-10-27T16:03:50.572Z,9584
2016-10-27T16:05:04.187Z,9328
2016-10-27T16:06:17.759Z,10040
2016-10-27T16:07:30.785Z,8988
2016-10-27T16:08:44.349Z,11964
2016-10-27T16:09:57.408Z,10552
2016-10-27T16:11:10.988Z,11052
2016-10-27T16:12:23.953Z,10468
2016-10-27T16:13:36.991Z,7828
2016-10-27T16:14:50.538Z,7164
2016-10-27T16:16:04.118Z,8028
2016-10-27T16:17:17.750Z,8252
2016-10-27T16:18:30.769Z,10004
2016-10-27T16:19:44.430Z,9508
2016-10-27T16:20:56.953Z,9288
2016-10-27T16:22:10.507Z,6976
2016-10-27T16:23:24.159Z,9232
2016-10-27T16:24:37.740Z,6128
2016-10-27T16:25:51.364Z,5480
2016-10-27T16:27:04.930Z,6764
2016-10-27T16:28:18.561Z,10408
2016-10-27T16:29:31.567Z,9308
2016-10-27T16:30:44.709Z,9404
2016-10-27T16:31:57.303Z,7312
2016-10-27T16:33:09.792Z,9700
2016-10-27T16:34:22.855Z,7308
2016-10-27T16:35:36.467Z,9084
2016-10-27T16:36:50.006Z,11328
2016-10-27T16:38:03.636Z,10672
2016-10-27T16:39:16.229Z,8248
2016-10-27T16:40:29.849Z,8212
2016-10-27T16:41:42.898Z,10540
2016-10-27T16:42:56.568Z,9744
2016-10-27T16:44:09.094Z,9140
2016-10-27T16:45:22.664Z,7036
2016-10-27T16:46:35.733Z,7796
2016-10-27T16:47:48.816Z,7720
2016-10-27T16:49:02.447Z,7808
2016-10-27T16:50:15.550Z,8452
2016-10-27T16:51:28.584Z,7980
2016-10-27T16:52:41.723Z,7236
2016-10-27T16:53:55.307Z,7852
2016-10-27T16:55:07.791Z,7656
2016-10-27T16:56:19.991Z,6820